sensor_id;sensor_type;location;lat;lon;timestamp;P1;durP1;ratioP1;P2;durP2;ratioP2
18879;SDS011;9572;52.378;13.404;2024-03-07T00:00:45;153.00;;;45.17;;
18879;SDS011;9572;52.378;13.404;2024-03-07T00:03:12;148.40;;;44.70;;
18879;SDS011;9572;52.378;13.404;2024-03-07T00:05:40;118.30;;;42.77;;
18879;SDS011;9572;52.378;13.404;2024-03-07T00:08:07;138.70;;;44.87;;
18879;SDS011;9572;52.378;13.404;2024-03-07T00:10:35;139.43;;;43.83;;
18879;SDS011;9572;52.378;13.404;2024-03-07T00:13:02;140.00;;;45.80;;
18879;SDS011;9572;52.378;13.404;2024-03-07T00:15:29;152.07;;;46.03;;
18879;SDS011;9572;52.378;13.404;2024-03-07T00:17:56;144.80;;;47.13;;
18879;SDS011;9572;52.378;13.404;2024-03-07T00:20:23;149.50;;;47.40;;
18879;SDS011;9572;52.378;13.404;2024-03-07T00:22:51;146.87;;;46.80;;
18879;SDS011;9572;52.378;13.404;2024-03-07T00:25:18;142.00;;;45.20;;
18879;SDS011;9572;52.378;13.404;2024-03-07T00:27:47;146.40;;;46.47;;
18879;SDS011;9572;52.378;13.404;2024-03-07T00:30:14;146.23;;;43.43;;
18879;SDS011;9572;52.378;13.404;2024-03-07T00:32:43;149.03;;;45.27;;
18879;SDS011;9572;52.378;13.404;2024-03-07T00:35:10;152.97;;;46.50;;
18879;SDS011;9572;52.378;13.404;2024-03-07T00:37:37;159.03;;;44.90;;
18879;SDS011;9572;52.378;13.404;2024-03-07T00:40:06;146.90;;;45.80;;
18879;SDS011;9572;52.378;13.404;2024-03-07T00:42:33;154.50;;;46.07;;
18879;SDS011;9572;52.378;13.404;2024-03-07T00:45:00;157.53;;;47.33;;
18879;SDS011;9572;52.378;13.404;2024-03-07T00:47:28;153.30;;;45.73;;
18879;SDS011;9572;52.378;13.404;2024-03-07T00:49:57;154.50;;;47.50;;
18879;SDS011;9572;52.378;13.404;2024-03-07T00:52:23;151.60;;;47.67;;
18879;SDS011;9572;52.378;13.404;2024-03-07T00:54:51;144.53;;;45.47;;
18879;SDS011;9572;52.378;13.404;2024-03-07T00:57:19;157.33;;;44.07;;
18879;SDS011;9572;52.378;13.404;2024-03-07T00:59:46;155.93;;;47.40;;
18879;SDS011;9572;52.378;13.404;2024-03-07T01:02:13;163.77;;;46.30;;
18879;SDS011;9572;52.378;13.404;2024-03-07T01:04:42;168.80;;;48.03;;
18879;SDS011;9572;52.378;13.404;2024-03-07T01:07:08;162.07;;;45.60;;
18879;SDS011;9572;52.378;13.404;2024-03-07T01:09:36;150.03;;;44.63;;
18879;SDS011;9572;52.378;13.404;2024-03-07T01:12:02;143.20;;;44.23;;
18879;SDS011;9572;52.378;13.404;2024-03-07T01:14:32;164.83;;;46.00;;
18879;SDS011;9572;52.378;13.404;2024-03-07T01:16:59;145.37;;;45.93;;
18879;SDS011;9572;52.378;13.404;2024-03-07T01:19:25;160.93;;;44.83;;
18879;SDS011;9572;52.378;13.404;2024-03-07T01:21:52;141.07;;;43.87;;
18879;SDS011;9572;52.378;13.404;2024-03-07T01:24:19;152.50;;;44.53;;
18879;SDS011;9572;52.378;13.404;2024-03-07T01:26:47;137.60;;;44.67;;
18879;SDS011;9572;52.378;13.404;2024-03-07T01:29:14;152.80;;;45.17;;
18879;SDS011;9572;52.378;13.404;2024-03-07T01:31:42;142.43;;;45.67;;
18879;SDS011;9572;52.378;13.404;2024-03-07T01:34:09;138.70;;;43.97;;
18879;SDS011;9572;52.378;13.404;2024-03-07T01:36:36;134.60;;;44.63;;
18879;SDS011;9572;52.378;13.404;2024-03-07T01:39:03;129.37;;;43.17;;
18879;SDS011;9572;52.378;13.404;2024-03-07T01:41:30;136.97;;;42.47;;
18879;SDS011;9572;52.378;13.404;2024-03-07T01:43:59;130.37;;;42.83;;
18879;SDS011;9572;52.378;13.404;2024-03-07T01:46:27;148.63;;;44.00;;
18879;SDS011;9572;52.378;13.404;2024-03-07T01:48:57;140.10;;;44.13;;
18879;SDS011;9572;52.378;13.404;2024-03-07T01:51:24;123.97;;;41.10;;
18879;SDS011;9572;52.378;13.404;2024-03-07T01:53:52;132.57;;;42.70;;
18879;SDS011;9572;52.378;13.404;2024-03-07T01:56:19;137.67;;;42.63;;
18879;SDS011;9572;52.378;13.404;2024-03-07T01:58:48;121.53;;;40.63;;
18879;SDS011;9572;52.378;13.404;2024-03-07T02:01:18;121.20;;;40.97;;
18879;SDS011;9572;52.378;13.404;2024-03-07T02:03:45;124.87;;;40.17;;
18879;SDS011;9572;52.378;13.404;2024-03-07T02:06:13;111.57;;;40.97;;
18879;SDS011;9572;52.378;13.404;2024-03-07T02:08:40;111.63;;;38.23;;
18879;SDS011;9572;52.378;13.404;2024-03-07T02:11:07;120.20;;;37.77;;
18879;SDS011;9572;52.378;13.404;2024-03-07T02:13:34;98.20;;;38.13;;
18879;SDS011;9572;52.378;13.404;2024-03-07T02:16:01;106.37;;;38.67;;
18879;SDS011;9572;52.378;13.404;2024-03-07T02:18:28;97.87;;;36.80;;
18879;SDS011;9572;52.378;13.404;2024-03-07T02:20:57;111.27;;;38.37;;
18879;SDS011;9572;52.378;13.404;2024-03-07T02:23:24;108.30;;;39.17;;
18879;SDS011;9572;52.378;13.404;2024-03-07T02:25:52;108.77;;;37.57;;
18879;SDS011;9572;52.378;13.404;2024-03-07T02:28:18;106.97;;;38.60;;
18879;SDS011;9572;52.378;13.404;2024-03-07T02:30:45;99.77;;;35.30;;
18879;SDS011;9572;52.378;13.404;2024-03-07T02:33:12;94.40;;;35.27;;
18879;SDS011;9572;52.378;13.404;2024-03-07T02:35:40;101.53;;;37.27;;
18879;SDS011;9572;52.378;13.404;2024-03-07T02:38:08;99.33;;;34.90;;
18879;SDS011;9572;52.378;13.404;2024-03-07T02:40:35;99.97;;;35.77;;
18879;SDS011;9572;52.378;13.404;2024-03-07T02:43:02;99.90;;;35.53;;
18879;SDS011;9572;52.378;13.404;2024-03-07T02:45:30;108.53;;;37.23;;
18879;SDS011;9572;52.378;13.404;2024-03-07T02:47:56;100.43;;;35.37;;
18879;SDS011;9572;52.378;13.404;2024-03-07T02:50:23;109.43;;;37.07;;
18879;SDS011;9572;52.378;13.404;2024-03-07T02:52:50;112.33;;;37.27;;
18879;SDS011;9572;52.378;13.404;2024-03-07T02:55:19;114.90;;;38.80;;
18879;SDS011;9572;52.378;13.404;2024-03-07T02:57:46;124.13;;;40.13;;
18879;SDS011;9572;52.378;13.404;2024-03-07T03:00:12;101.97;;;36.13;;
18879;SDS011;9572;52.378;13.404;2024-03-07T03:02:46;113.80;;;39.37;;
18879;SDS011;9572;52.378;13.404;2024-03-07T03:05:14;107.03;;;38.17;;
18879;SDS011;9572;52.378;13.404;2024-03-07T03:07:41;104.03;;;37.53;;
18879;SDS011;9572;52.378;13.404;2024-03-07T03:10:09;106.27;;;38.73;;
18879;SDS011;9572;52.378;13.404;2024-03-07T03:12:41;106.30;;;38.10;;
18879;SDS011;9572;52.378;13.404;2024-03-07T03:15:08;103.40;;;35.20;;
18879;SDS011;9572;52.378;13.404;2024-03-07T03:17:36;92.53;;;34.00;;
18879;SDS011;9572;52.378;13.404;2024-03-07T03:20:03;106.73;;;35.77;;
18879;SDS011;9572;52.378;13.404;2024-03-07T03:22:40;98.13;;;37.00;;
18879;SDS011;9572;52.378;13.404;2024-03-07T03:25:09;104.40;;;37.63;;
18879;SDS011;9572;52.378;13.404;2024-03-07T03:27:36;97.57;;;36.33;;
18879;SDS011;9572;52.378;13.404;2024-03-07T03:30:05;100.50;;;36.13;;
18879;SDS011;9572;52.378;13.404;2024-03-07T03:32:38;107.47;;;36.47;;
18879;SDS011;9572;52.378;13.404;2024-03-07T03:35:05;108.13;;;36.17;;
18879;SDS011;9572;52.378;13.404;2024-03-07T03:37:38;113.30;;;37.17;;
18879;SDS011;9572;52.378;13.404;2024-03-07T03:40:06;94.60;;;35.63;;
18879;SDS011;9572;52.378;13.404;2024-03-07T03:42:34;95.77;;;35.13;;
18879;SDS011;9572;52.378;13.404;2024-03-07T03:45:02;107.13;;;37.07;;
18879;SDS011;9572;52.378;13.404;2024-03-07T03:47:32;90.60;;;33.20;;
18879;SDS011;9572;52.378;13.404;2024-03-07T03:50:01;105.97;;;35.87;;
18879;SDS011;9572;52.378;13.404;2024-03-07T03:52:28;98.33;;;35.50;;
18879;SDS011;9572;52.378;13.404;2024-03-07T03:54:55;99.83;;;35.33;;
18879;SDS011;9572;52.378;13.404;2024-03-07T03:57:23;124.03;;;37.23;;
18879;SDS011;9572;52.378;13.404;2024-03-07T03:59:50;104.20;;;36.23;;
18879;SDS011;9572;52.378;13.404;2024-03-07T04:02:18;95.07;;;35.33;;
18879;SDS011;9572;52.378;13.404;2024-03-07T04:04:45;105.50;;;35.10;;
18879;SDS011;9572;52.378;13.404;2024-03-07T04:07:12;102.00;;;36.20;;
18879;SDS011;9572;52.378;13.404;2024-03-07T04:09:40;94.77;;;33.30;;
18879;SDS011;9572;52.378;13.404;2024-03-07T04:12:08;90.63;;;34.87;;
18879;SDS011;9572;52.378;13.404;2024-03-07T04:14:35;93.30;;;33.50;;
18879;SDS011;9572;52.378;13.404;2024-03-07T04:17:03;90.30;;;33.80;;
18879;SDS011;9572;52.378;13.404;2024-03-07T04:19:33;94.07;;;34.60;;
18879;SDS011;9572;52.378;13.404;2024-03-07T04:22:01;97.83;;;34.90;;
18879;SDS011;9572;52.378;13.404;2024-03-07T04:24:28;100.53;;;34.83;;
18879;SDS011;9572;52.378;13.404;2024-03-07T04:26:57;108.23;;;37.57;;
18879;SDS011;9572;52.378;13.404;2024-03-07T04:29:24;99.20;;;35.17;;
18879;SDS011;9572;52.378;13.404;2024-03-07T04:31:51;94.80;;;34.83;;
18879;SDS011;9572;52.378;13.404;2024-03-07T04:34:18;90.77;;;32.80;;
18879;SDS011;9572;52.378;13.404;2024-03-07T04:36:46;86.03;;;33.10;;
18879;SDS011;9572;52.378;13.404;2024-03-07T04:39:13;87.27;;;34.00;;
18879;SDS011;9572;52.378;13.404;2024-03-07T04:41:49;85.53;;;32.63;;
18879;SDS011;9572;52.378;13.404;2024-03-07T04:44:17;95.10;;;33.73;;
18879;SDS011;9572;52.378;13.404;2024-03-07T04:46:44;90.70;;;34.43;;
18879;SDS011;9572;52.378;13.404;2024-03-07T04:49:11;83.60;;;33.23;;
18879;SDS011;9572;52.378;13.404;2024-03-07T04:51:38;86.33;;;32.27;;
18879;SDS011;9572;52.378;13.404;2024-03-07T04:54:06;82.83;;;31.90;;
18879;SDS011;9572;52.378;13.404;2024-03-07T04:56:33;93.40;;;33.60;;
18879;SDS011;9572;52.378;13.404;2024-03-07T04:59:00;87.23;;;33.50;;
18879;SDS011;9572;52.378;13.404;2024-03-07T05:01:27;87.60;;;33.83;;
18879;SDS011;9572;52.378;13.404;2024-03-07T05:03:56;81.50;;;34.43;;
18879;SDS011;9572;52.378;13.404;2024-03-07T05:06:23;86.07;;;32.73;;
18879;SDS011;9572;52.378;13.404;2024-03-07T05:08:50;90.90;;;34.03;;
18879;SDS011;9572;52.378;13.404;2024-03-07T05:11:18;79.47;;;32.37;;
18879;SDS011;9572;52.378;13.404;2024-03-07T05:13:46;85.07;;;32.53;;
18879;SDS011;9572;52.378;13.404;2024-03-07T05:16:13;81.20;;;32.83;;
18879;SDS011;9572;52.378;13.404;2024-03-07T05:18:42;75.80;;;32.63;;
18879;SDS011;9572;52.378;13.404;2024-03-07T05:21:09;88.70;;;33.20;;
18879;SDS011;9572;52.378;13.404;2024-03-07T05:23:50;85.17;;;32.07;;
18879;SDS011;9572;52.378;13.404;2024-03-07T05:26:17;85.63;;;33.07;;
18879;SDS011;9572;52.378;13.404;2024-03-07T05:28:45;74.90;;;31.77;;
18879;SDS011;9572;52.378;13.404;2024-03-07T05:31:12;73.63;;;31.57;;
18879;SDS011;9572;52.378;13.404;2024-03-07T05:33:39;82.30;;;31.50;;
18879;SDS011;9572;52.378;13.404;2024-03-07T05:36:07;76.33;;;31.43;;
18879;SDS011;9572;52.378;13.404;2024-03-07T05:38:40;70.43;;;30.90;;
18879;SDS011;9572;52.378;13.404;2024-03-07T05:41:08;73.10;;;31.80;;
18879;SDS011;9572;52.378;13.404;2024-03-07T05:43:37;87.37;;;32.73;;
18879;SDS011;9572;52.378;13.404;2024-03-07T05:46:04;69.07;;;30.80;;
18879;SDS011;9572;52.378;13.404;2024-03-07T05:48:32;74.60;;;31.00;;
18879;SDS011;9572;52.378;13.404;2024-03-07T05:50:59;72.27;;;32.27;;
18879;SDS011;9572;52.378;13.404;2024-03-07T05:53:26;74.67;;;32.60;;
18879;SDS011;9572;52.378;13.404;2024-03-07T05:55:53;76.17;;;31.33;;
18879;SDS011;9572;52.378;13.404;2024-03-07T05:58:20;75.80;;;32.17;;
18879;SDS011;9572;52.378;13.404;2024-03-07T06:00:48;70.70;;;31.37;;
18879;SDS011;9572;52.378;13.404;2024-03-07T06:03:16;79.80;;;31.63;;
18879;SDS011;9572;52.378;13.404;2024-03-07T06:05:44;75.30;;;31.47;;
18879;SDS011;9572;52.378;13.404;2024-03-07T06:08:13;76.97;;;32.67;;
18879;SDS011;9572;52.378;13.404;2024-03-07T06:10:42;73.77;;;31.83;;
18879;SDS011;9572;52.378;13.404;2024-03-07T06:13:09;71.17;;;30.47;;
18879;SDS011;9572;52.378;13.404;2024-03-07T06:15:36;74.33;;;31.13;;
18879;SDS011;9572;52.378;13.404;2024-03-07T06:18:05;76.23;;;32.40;;
18879;SDS011;9572;52.378;13.404;2024-03-07T06:20:33;69.93;;;32.10;;
18879;SDS011;9572;52.378;13.404;2024-03-07T06:23:00;71.80;;;31.33;;
18879;SDS011;9572;52.378;13.404;2024-03-07T06:25:30;70.43;;;31.50;;
18879;SDS011;9572;52.378;13.404;2024-03-07T06:28:02;68.23;;;31.17;;
18879;SDS011;9572;52.378;13.404;2024-03-07T06:30:35;70.13;;;29.87;;
18879;SDS011;9572;52.378;13.404;2024-03-07T06:33:02;68.67;;;31.80;;
18879;SDS011;9572;52.378;13.404;2024-03-07T06:35:31;69.17;;;30.10;;
18879;SDS011;9572;52.378;13.404;2024-03-07T06:38:01;64.37;;;29.33;;
18879;SDS011;9572;52.378;13.404;2024-03-07T06:40:28;63.23;;;28.80;;
18879;SDS011;9572;52.378;13.404;2024-03-07T06:42:55;63.30;;;28.83;;
18879;SDS011;9572;52.378;13.404;2024-03-07T06:45:22;61.67;;;26.90;;
18879;SDS011;9572;52.378;13.404;2024-03-07T06:47:49;63.90;;;28.47;;
18879;SDS011;9572;52.378;13.404;2024-03-07T06:50:17;53.90;;;26.33;;
18879;SDS011;9572;52.378;13.404;2024-03-07T06:52:46;57.03;;;26.17;;
18879;SDS011;9572;52.378;13.404;2024-03-07T06:55:14;59.40;;;26.30;;
18879;SDS011;9572;52.378;13.404;2024-03-07T06:57:43;53.47;;;25.60;;
18879;SDS011;9572;52.378;13.404;2024-03-07T07:00:10;53.00;;;24.00;;
18879;SDS011;9572;52.378;13.404;2024-03-07T07:02:38;43.40;;;22.87;;
18879;SDS011;9572;52.378;13.404;2024-03-07T07:05:06;51.87;;;24.93;;
18879;SDS011;9572;52.378;13.404;2024-03-07T07:07:36;49.43;;;24.83;;
18879;SDS011;9572;52.378;13.404;2024-03-07T07:10:05;53.50;;;24.07;;
18879;SDS011;9572;52.378;13.404;2024-03-07T07:12:35;47.87;;;21.80;;
18879;SDS011;9572;52.378;13.404;2024-03-07T07:15:01;47.73;;;22.57;;
18879;SDS011;9572;52.378;13.404;2024-03-07T07:17:29;43.50;;;22.43;;
18879;SDS011;9572;52.378;13.404;2024-03-07T07:19:57;44.93;;;22.67;;
18879;SDS011;9572;52.378;13.404;2024-03-07T07:22:24;42.60;;;21.67;;
18879;SDS011;9572;52.378;13.404;2024-03-07T07:24:51;47.57;;;21.57;;
18879;SDS011;9572;52.378;13.404;2024-03-07T07:27:20;40.37;;;20.47;;
18879;SDS011;9572;52.378;13.404;2024-03-07T07:29:46;49.40;;;22.00;;
18879;SDS011;9572;52.378;13.404;2024-03-07T07:32:13;44.77;;;21.73;;
18879;SDS011;9572;52.378;13.404;2024-03-07T07:34:40;41.47;;;20.17;;
18879;SDS011;9572;52.378;13.404;2024-03-07T07:37:08;37.33;;;20.03;;
18879;SDS011;9572;52.378;13.404;2024-03-07T07:39:35;44.93;;;20.07;;
18879;SDS011;9572;52.378;13.404;2024-03-07T07:42:02;37.83;;;19.30;;
18879;SDS011;9572;52.378;13.404;2024-03-07T07:44:31;41.23;;;20.77;;
18879;SDS011;9572;52.378;13.404;2024-03-07T07:46:58;41.33;;;20.80;;
18879;SDS011;9572;52.378;13.404;2024-03-07T07:49:26;36.47;;;18.43;;
18879;SDS011;9572;52.378;13.404;2024-03-07T07:51:53;39.20;;;17.93;;
18879;SDS011;9572;52.378;13.404;2024-03-07T07:54:20;37.77;;;18.73;;
18879;SDS011;9572;52.378;13.404;2024-03-07T07:56:47;36.37;;;18.87;;
18879;SDS011;9572;52.378;13.404;2024-03-07T07:59:14;43.23;;;20.13;;
18879;SDS011;9572;52.378;13.404;2024-03-07T08:01:42;39.37;;;18.60;;
18879;SDS011;9572;52.378;13.404;2024-03-07T08:04:09;33.40;;;17.60;;
18879;SDS011;9572;52.378;13.404;2024-03-07T08:06:36;34.20;;;16.63;;
18879;SDS011;9572;52.378;13.404;2024-03-07T08:09:03;34.27;;;17.77;;
18879;SDS011;9572;52.378;13.404;2024-03-07T08:11:34;32.00;;;17.47;;
18879;SDS011;9572;52.378;13.404;2024-03-07T08:14:02;28.33;;;16.80;;
18879;SDS011;9572;52.378;13.404;2024-03-07T08:16:28;36.20;;;18.17;;
18879;SDS011;9572;52.378;13.404;2024-03-07T08:18:57;36.03;;;17.30;;
18879;SDS011;9572;52.378;13.404;2024-03-07T08:21:24;33.60;;;17.20;;
18879;SDS011;9572;52.378;13.404;2024-03-07T08:23:50;30.40;;;16.20;;
18879;SDS011;9572;52.378;13.404;2024-03-07T08:26:19;31.90;;;17.40;;
18879;SDS011;9572;52.378;13.404;2024-03-07T08:28:46;35.63;;;16.43;;
18879;SDS011;9572;52.378;13.404;2024-03-07T08:31:13;36.23;;;17.07;;
18879;SDS011;9572;52.378;13.404;2024-03-07T08:33:40;33.87;;;16.53;;
18879;SDS011;9572;52.378;13.404;2024-03-07T08:36:08;33.23;;;16.37;;
18879;SDS011;9572;52.378;13.404;2024-03-07T08:38:36;29.57;;;15.33;;
18879;SDS011;9572;52.378;13.404;2024-03-07T08:41:03;29.00;;;15.47;;
18879;SDS011;9572;52.378;13.404;2024-03-07T08:43:30;32.80;;;15.73;;
18879;SDS011;9572;52.378;13.404;2024-03-07T08:45:57;28.70;;;15.20;;
18879;SDS011;9572;52.378;13.404;2024-03-07T08:48:24;31.37;;;15.20;;
18879;SDS011;9572;52.378;13.404;2024-03-07T08:50:51;32.60;;;15.93;;
18879;SDS011;9572;52.378;13.404;2024-03-07T08:53:19;26.87;;;14.67;;
18879;SDS011;9572;52.378;13.404;2024-03-07T08:55:46;26.77;;;14.23;;
18879;SDS011;9572;52.378;13.404;2024-03-07T08:58:13;25.10;;;14.00;;
18879;SDS011;9572;52.378;13.404;2024-03-07T09:00:39;26.50;;;14.67;;
18879;SDS011;9572;52.378;13.404;2024-03-07T09:03:06;23.40;;;13.73;;
18879;SDS011;9572;52.378;13.404;2024-03-07T09:05:35;27.63;;;12.90;;
18879;SDS011;9572;52.378;13.404;2024-03-07T09:08:02;25.77;;;12.77;;
18879;SDS011;9572;52.378;13.404;2024-03-07T09:10:31;24.70;;;13.17;;
18879;SDS011;9572;52.378;13.404;2024-03-07T09:12:58;25.13;;;12.47;;
18879;SDS011;9572;52.378;13.404;2024-03-07T09:15:25;21.37;;;11.87;;
18879;SDS011;9572;52.378;13.404;2024-03-07T09:17:53;25.17;;;13.47;;
18879;SDS011;9572;52.378;13.404;2024-03-07T09:20:20;24.67;;;12.67;;
18879;SDS011;9572;52.378;13.404;2024-03-07T09:22:47;23.80;;;12.33;;
18879;SDS011;9572;52.378;13.404;2024-03-07T09:25:15;24.17;;;11.63;;
18879;SDS011;9572;52.378;13.404;2024-03-07T09:27:45;21.83;;;12.47;;
18879;SDS011;9572;52.378;13.404;2024-03-07T09:30:12;22.13;;;12.60;;
18879;SDS011;9572;52.378;13.404;2024-03-07T09:32:44;20.83;;;11.50;;
18879;SDS011;9572;52.378;13.404;2024-03-07T09:35:10;26.50;;;11.73;;
18879;SDS011;9572;52.378;13.404;2024-03-07T09:37:39;22.37;;;11.53;;
18879;SDS011;9572;52.378;13.404;2024-03-07T09:40:06;18.80;;;10.20;;
18879;SDS011;9572;52.378;13.404;2024-03-07T09:42:36;21.60;;;10.30;;
18879;SDS011;9572;52.378;13.404;2024-03-07T09:45:10;22.63;;;11.23;;
18879;SDS011;9572;52.378;13.404;2024-03-07T09:47:40;15.60;;;9.17;;
18879;SDS011;9572;52.378;13.404;2024-03-07T09:50:09;16.43;;;8.63;;
18879;SDS011;9572;52.378;13.404;2024-03-07T09:52:36;18.87;;;8.63;;
18879;SDS011;9572;52.378;13.404;2024-03-07T09:55:03;22.50;;;9.50;;
18879;SDS011;9572;52.378;13.404;2024-03-07T09:57:33;17.70;;;9.13;;
18879;SDS011;9572;52.378;13.404;2024-03-07T10:00:02;15.17;;;8.70;;
18879;SDS011;9572;52.378;13.404;2024-03-07T10:02:32;20.20;;;8.77;;
18879;SDS011;9572;52.378;13.404;2024-03-07T10:05:02;17.07;;;8.83;;
18879;SDS011;9572;52.378;13.404;2024-03-07T10:07:34;19.03;;;8.87;;
18879;SDS011;9572;52.378;13.404;2024-03-07T10:10:01;17.67;;;9.37;;
18879;SDS011;9572;52.378;13.404;2024-03-07T10:12:35;14.30;;;9.13;;
18879;SDS011;9572;52.378;13.404;2024-03-07T10:15:03;17.97;;;9.83;;
18879;SDS011;9572;52.378;13.404;2024-03-07T10:17:36;24.88;;;13.80;;
18879;SDS011;9572;52.378;13.404;2024-03-07T10:20:04;16.93;;;9.83;;
18879;SDS011;9572;52.378;13.404;2024-03-07T10:22:34;16.57;;;9.90;;
18879;SDS011;9572;52.378;13.404;2024-03-07T10:25:01;20.20;;;9.17;;
18879;SDS011;9572;52.378;13.404;2024-03-07T10:27:30;16.93;;;9.27;;
18879;SDS011;9572;52.378;13.404;2024-03-07T10:29:56;20.57;;;10.60;;
18879;SDS011;9572;52.378;13.404;2024-03-07T10:32:24;16.83;;;10.10;;
18879;SDS011;9572;52.378;13.404;2024-03-07T10:34:53;16.70;;;9.30;;
18879;SDS011;9572;52.378;13.404;2024-03-07T10:37:20;15.63;;;9.50;;
18879;SDS011;9572;52.378;13.404;2024-03-07T10:39:46;16.10;;;9.80;;
18879;SDS011;9572;52.378;13.404;2024-03-07T10:42:15;15.20;;;8.43;;
18879;SDS011;9572;52.378;13.404;2024-03-07T10:44:43;14.23;;;8.40;;
18879;SDS011;9572;52.378;13.404;2024-03-07T10:47:11;14.23;;;8.43;;
18879;SDS011;9572;52.378;13.404;2024-03-07T10:49:45;15.20;;;8.20;;
18879;SDS011;9572;52.378;13.404;2024-03-07T10:52:25;15.90;;;8.97;;
18879;SDS011;9572;52.378;13.404;2024-03-07T10:55:03;15.27;;;8.70;;
18879;SDS011;9572;52.378;13.404;2024-03-07T10:57:42;19.13;;;9.50;;
18879;SDS011;9572;52.378;13.404;2024-03-07T11:00:18;16.20;;;8.77;;
18879;SDS011;9572;52.378;13.404;2024-03-07T11:03:00;18.73;;;9.77;;
18879;SDS011;9572;52.378;13.404;2024-03-07T11:05:32;16.60;;;8.80;;
18879;SDS011;9572;52.378;13.404;2024-03-07T11:08:01;14.23;;;8.80;;
18879;SDS011;9572;52.378;13.404;2024-03-07T11:10:32;17.40;;;9.17;;
18879;SDS011;9572;52.378;13.404;2024-03-07T11:12:59;16.57;;;9.20;;
18879;SDS011;9572;52.378;13.404;2024-03-07T11:15:27;16.57;;;9.03;;
18879;SDS011;9572;52.378;13.404;2024-03-07T11:17:55;15.57;;;8.67;;
18879;SDS011;9572;52.378;13.404;2024-03-07T11:20:24;16.17;;;9.43;;
18879;SDS011;9572;52.378;13.404;2024-03-07T11:22:51;19.03;;;9.03;;
18879;SDS011;9572;52.378;13.404;2024-03-07T11:25:21;18.33;;;9.30;;
18879;SDS011;9572;52.378;13.404;2024-03-07T11:27:51;14.37;;;9.10;;
18879;SDS011;9572;52.378;13.404;2024-03-07T11:30:19;15.77;;;9.60;;
18879;SDS011;9572;52.378;13.404;2024-03-07T11:32:47;16.87;;;8.97;;
18879;SDS011;9572;52.378;13.404;2024-03-07T11:35:15;19.37;;;10.07;;
18879;SDS011;9572;52.378;13.404;2024-03-07T11:37:47;17.17;;;9.00;;
18879;SDS011;9572;52.378;13.404;2024-03-07T11:43:16;22.07;;;10.43;;
18879;SDS011;9572;52.378;13.404;2024-03-07T11:45:43;19.47;;;10.80;;
18879;SDS011;9572;52.378;13.404;2024-03-07T11:48:17;23.37;;;10.20;;
18879;SDS011;9572;52.378;13.404;2024-03-07T11:50:45;19.27;;;10.20;;
18879;SDS011;9572;52.378;13.404;2024-03-07T11:53:14;17.57;;;9.70;;
18879;SDS011;9572;52.378;13.404;2024-03-07T11:55:40;22.57;;;10.90;;
18879;SDS011;9572;52.378;13.404;2024-03-07T11:58:13;22.77;;;10.90;;
18879;SDS011;9572;52.378;13.404;2024-03-07T12:00:41;23.53;;;12.30;;
18879;SDS011;9572;52.378;13.404;2024-03-07T12:03:10;21.80;;;11.60;;
18879;SDS011;9572;52.378;13.404;2024-03-07T12:05:38;22.60;;;11.53;;
18879;SDS011;9572;52.378;13.404;2024-03-07T12:08:06;23.13;;;11.63;;
18879;SDS011;9572;52.378;13.404;2024-03-07T12:10:34;22.13;;;11.77;;
18879;SDS011;9572;52.378;13.404;2024-03-07T12:13:04;20.50;;;10.67;;
18879;SDS011;9572;52.378;13.404;2024-03-07T12:15:33;21.97;;;11.60;;
18879;SDS011;9572;52.378;13.404;2024-03-07T12:18:03;24.60;;;14.73;;
18879;SDS011;9572;52.378;13.404;2024-03-07T12:20:34;24.20;;;12.77;;
18879;SDS011;9572;52.378;13.404;2024-03-07T12:23:02;19.70;;;11.20;;
18879;SDS011;9572;52.378;13.404;2024-03-07T12:25:32;19.50;;;11.47;;
18879;SDS011;9572;52.378;13.404;2024-03-07T12:28:00;18.67;;;11.23;;
18879;SDS011;9572;52.378;13.404;2024-03-07T12:30:33;21.93;;;12.07;;
18879;SDS011;9572;52.378;13.404;2024-03-07T12:33:03;18.90;;;11.23;;
18879;SDS011;9572;52.378;13.404;2024-03-07T12:35:32;20.13;;;11.10;;
18879;SDS011;9572;52.378;13.404;2024-03-07T12:37:59;15.67;;;10.20;;
18879;SDS011;9572;52.378;13.404;2024-03-07T12:40:28;20.27;;;10.23;;
18879;SDS011;9572;52.378;13.404;2024-03-07T12:42:59;19.57;;;10.60;;
18879;SDS011;9572;52.378;13.404;2024-03-07T12:45:27;22.60;;;10.47;;
18879;SDS011;9572;52.378;13.404;2024-03-07T12:47:56;26.43;;;11.33;;
18879;SDS011;9572;52.378;13.404;2024-03-07T12:50:29;15.63;;;9.63;;
18879;SDS011;9572;52.378;13.404;2024-03-07T12:52:56;16.43;;;9.30;;
18879;SDS011;9572;52.378;13.404;2024-03-07T12:55:22;17.00;;;10.47;;
18879;SDS011;9572;52.378;13.404;2024-03-07T12:57:49;17.67;;;9.87;;
18879;SDS011;9572;52.378;13.404;2024-03-07T13:00:16;21.67;;;10.53;;
18879;SDS011;9572;52.378;13.404;2024-03-07T13:02:48;16.53;;;10.70;;
18879;SDS011;9572;52.378;13.404;2024-03-07T13:05:16;23.73;;;10.87;;
18879;SDS011;9572;52.378;13.404;2024-03-07T13:07:47;16.23;;;9.70;;
18879;SDS011;9572;52.378;13.404;2024-03-07T13:10:14;19.50;;;10.30;;
18879;SDS011;9572;52.378;13.404;2024-03-07T13:12:43;17.40;;;10.00;;
18879;SDS011;9572;52.378;13.404;2024-03-07T13:15:11;20.17;;;10.10;;
18879;SDS011;9572;52.378;13.404;2024-03-07T13:17:38;22.10;;;9.97;;
18879;SDS011;9572;52.378;13.404;2024-03-07T13:20:08;16.40;;;9.93;;
18879;SDS011;9572;52.378;13.404;2024-03-07T13:22:39;16.27;;;10.27;;
18879;SDS011;9572;52.378;13.404;2024-03-07T13:25:08;19.60;;;10.03;;
18879;SDS011;9572;52.378;13.404;2024-03-07T13:27:39;20.10;;;10.90;;
18879;SDS011;9572;52.378;13.404;2024-03-07T13:30:09;20.13;;;10.67;;
18879;SDS011;9572;52.378;13.404;2024-03-07T13:32:52;15.33;;;10.27;;
18879;SDS011;9572;52.378;13.404;2024-03-07T13:35:19;19.80;;;11.60;;
18879;SDS011;9572;52.378;13.404;2024-03-07T13:37:48;19.83;;;11.83;;
18879;SDS011;9572;52.378;13.404;2024-03-07T13:40:15;18.37;;;10.90;;
18879;SDS011;9572;52.378;13.404;2024-03-07T13:42:54;19.33;;;11.23;;
18879;SDS011;9572;52.378;13.404;2024-03-07T13:45:21;16.97;;;11.17;;
18879;SDS011;9572;52.378;13.404;2024-03-07T13:47:51;22.67;;;12.07;;
18879;SDS011;9572;52.378;13.404;2024-03-07T13:50:19;19.77;;;11.73;;
18879;SDS011;9572;52.378;13.404;2024-03-07T13:52:48;20.63;;;11.50;;
18879;SDS011;9572;52.378;13.404;2024-03-07T13:55:39;19.13;;;11.67;;
18879;SDS011;9572;52.378;13.404;2024-03-07T13:58:14;20.07;;;11.67;;
18879;SDS011;9572;52.378;13.404;2024-03-07T14:00:54;19.73;;;12.33;;
18879;SDS011;9572;52.378;13.404;2024-03-07T14:03:50;24.67;;;12.10;;
18879;SDS011;9572;52.378;13.404;2024-03-07T14:06:50;19.63;;;12.20;;
18879;SDS011;9572;52.378;13.404;2024-03-07T14:09:43;19.33;;;11.80;;
18879;SDS011;9572;52.378;13.404;2024-03-07T14:12:32;21.67;;;12.57;;
18879;SDS011;9572;52.378;13.404;2024-03-07T14:27:53;21.23;;;11.53;;
18879;SDS011;9572;52.378;13.404;2024-03-07T14:30:38;21.03;;;11.27;;
18879;SDS011;9572;52.378;13.404;2024-03-07T14:33:08;20.73;;;11.40;;
18879;SDS011;9572;52.378;13.404;2024-03-07T14:35:39;18.93;;;11.87;;
18879;SDS011;9572;52.378;13.404;2024-03-07T14:38:26;19.30;;;10.43;;
18879;SDS011;9572;52.378;13.404;2024-03-07T14:40:57;16.10;;;9.73;;
18879;SDS011;9572;52.378;13.404;2024-03-07T14:43:23;17.87;;;10.90;;
18879;SDS011;9572;52.378;13.404;2024-03-07T14:45:51;20.37;;;11.97;;